sensor_id;sensor_type;location;lat;lon;timestamp;P1;durP1;ratioP1;P2;durP2;ratioP2
65759;SDS011;52496;51.082;5.066;2022-12-29T00:01:18;4.88;;;3.00;;
65759;SDS011;52496;51.082;5.066;2022-12-29T00:03:48;5.75;;;2.58;;
65759;SDS011;52496;51.082;5.066;2022-12-29T00:06:19;4.70;;;2.67;;
65759;SDS011;52496;51.082;5.066;2022-12-29T00:08:49;6.07;;;2.60;;
65759;SDS011;52496;51.082;5.066;2022-12-29T00:11:21;4.95;;;2.38;;
65759;SDS011;52496;51.082;5.066;2022-12-29T00:13:56;3.85;;;2.22;;
65759;SDS011;52496;51.082;5.066;2022-12-29T00:16:45;3.25;;;2.00;;
65759;SDS011;52496;51.082;5.066;2022-12-29T00:19:15;3.45;;;1.92;;
65759;SDS011;52496;51.082;5.066;2022-12-29T00:22:05;5.20;;;2.10;;
65759;SDS011;52496;51.082;5.066;2022-12-29T00:24:54;3.65;;;1.55;;
65759;SDS011;52496;51.082;5.066;2022-12-29T00:27:44;3.33;;;1.85;;
65759;SDS011;52496;51.082;5.066;2022-12-29T00:30:33;4.10;;;1.80;;
65759;SDS011;52496;51.082;5.066;2022-12-29T00:33:30;3.47;;;1.77;;
65759;SDS011;52496;51.082;5.066;2022-12-29T00:36:31;3.75;;;1.80;;
65759;SDS011;52496;51.082;5.066;2022-12-29T00:39:14;2.88;;;1.58;;
65759;SDS011;52496;51.082;5.066;2022-12-29T00:42:07;3.45;;;1.80;;
65759;SDS011;52496;51.082;5.066;2022-12-29T00:45:16;3.45;;;1.60;;
65759;SDS011;52496;51.082;5.066;2022-12-29T00:47:47;2.95;;;1.80;;
65759;SDS011;52496;51.082;5.066;2022-12-29T00:50:17;5.70;;;1.85;;
65759;SDS011;52496;51.082;5.066;2022-12-29T00:52:48;3.80;;;1.45;;
65759;SDS011;52496;51.082;5.066;2022-12-29T00:55:19;7.35;;;1.75;;
65759;SDS011;52496;51.082;5.066;2022-12-29T00:57:49;5.15;;;1.80;;
65759;SDS011;52496;51.082;5.066;2022-12-29T01:00:20;3.05;;;1.80;;
65759;SDS011;52496;51.082;5.066;2022-12-29T01:02:50;3.42;;;1.40;;
65759;SDS011;52496;51.082;5.066;2022-12-29T01:05:21;1.63;;;1.10;;
65759;SDS011;52496;51.082;5.066;2022-12-29T01:07:51;4.28;;;1.58;;
65759;SDS011;52496;51.082;5.066;2022-12-29T01:10:22;3.50;;;1.42;;
65759;SDS011;52496;51.082;5.066;2022-12-29T01:12:53;2.95;;;1.52;;
65759;SDS011;52496;51.082;5.066;2022-12-29T01:15:23;2.03;;;1.10;;
65759;SDS011;52496;51.082;5.066;2022-12-29T01:17:54;2.97;;;1.52;;
65759;SDS011;52496;51.082;5.066;2022-12-29T01:20:24;2.97;;;1.30;;
65759;SDS011;52496;51.082;5.066;2022-12-29T01:22:55;3.13;;;1.30;;
65759;SDS011;52496;51.082;5.066;2022-12-29T01:25:25;3.80;;;1.60;;
65759;SDS011;52496;51.082;5.066;2022-12-29T01:27:56;3.10;;;1.13;;
65759;SDS011;52496;51.082;5.066;2022-12-29T01:30:26;4.18;;;1.27;;
65759;SDS011;52496;51.082;5.066;2022-12-29T01:32:57;4.22;;;1.40;;
65759;SDS011;52496;51.082;5.066;2022-12-29T01:35:28;2.47;;;1.30;;
65759;SDS011;52496;51.082;5.066;2022-12-29T01:37:58;3.38;;;1.60;;
65759;SDS011;52496;51.082;5.066;2022-12-29T01:40:29;3.63;;;1.92;;
65759;SDS011;52496;51.082;5.066;2022-12-29T01:43:00;4.43;;;1.40;;
65759;SDS011;52496;51.082;5.066;2022-12-29T01:45:30;3.50;;;1.60;;
65759;SDS011;52496;51.082;5.066;2022-12-29T01:48:01;2.88;;;1.38;;
65759;SDS011;52496;51.082;5.066;2022-12-29T01:50:39;2.78;;;1.63;;
65759;SDS011;52496;51.082;5.066;2022-12-29T01:53:15;3.45;;;1.60;;
65759;SDS011;52496;51.082;5.066;2022-12-29T01:55:58;5.03;;;1.23;;
65759;SDS011;52496;51.082;5.066;2022-12-29T01:58:33;5.03;;;1.48;;
65759;SDS011;52496;51.082;5.066;2022-12-29T02:01:09;4.95;;;1.88;;
65759;SDS011;52496;51.082;5.066;2022-12-29T02:03:41;4.05;;;1.60;;
65759;SDS011;52496;51.082;5.066;2022-12-29T02:06:17;2.97;;;1.65;;
65759;SDS011;52496;51.082;5.066;2022-12-29T02:08:52;3.22;;;1.45;;
65759;SDS011;52496;51.082;5.066;2022-12-29T02:11:25;4.47;;;1.63;;
65759;SDS011;52496;51.082;5.066;2022-12-29T02:13:58;6.18;;;1.42;;
65759;SDS011;52496;51.082;5.066;2022-12-29T02:16:36;3.05;;;1.58;;
65759;SDS011;52496;51.082;5.066;2022-12-29T02:27:40;3.88;;;1.60;;
65759;SDS011;52496;51.082;5.066;2022-12-29T02:30:42;5.57;;;1.83;;
65759;SDS011;52496;51.082;5.066;2022-12-29T02:33:28;4.28;;;1.50;;
65759;SDS011;52496;51.082;5.066;2022-12-29T02:47:56;3.33;;;0.98;;
65759;SDS011;52496;51.082;5.066;2022-12-29T02:51:02;2.53;;;1.00;;
65759;SDS011;52496;51.082;5.066;2022-12-29T02:53:34;2.97;;;0.95;;
65759;SDS011;52496;51.082;5.066;2022-12-29T02:56:24;3.08;;;1.20;;
65759;SDS011;52496;51.082;5.066;2022-12-29T02:58:55;3.72;;;1.00;;
65759;SDS011;52496;51.082;5.066;2022-12-29T03:10:02;7.90;;;1.10;;
65759;SDS011;52496;51.082;5.066;2022-12-29T03:12:56;2.80;;;1.13;;
65759;SDS011;52496;51.082;5.066;2022-12-29T03:15:54;2.95;;;0.80;;
65759;SDS011;52496;51.082;5.066;2022-12-29T03:24:29;1.00;;;0.60;;
65759;SDS011;52496;51.082;5.066;2022-12-29T03:27:03;1.20;;;0.65;;
65759;SDS011;52496;51.082;5.066;2022-12-29T03:29:38;2.67;;;0.85;;
65759;SDS011;52496;51.082;5.066;2022-12-29T03:32:12;2.47;;;0.82;;
65759;SDS011;52496;51.082;5.066;2022-12-29T03:34:45;3.05;;;1.27;;
65759;SDS011;52496;51.082;5.066;2022-12-29T03:37:20;1.60;;;0.90;;
65759;SDS011;52496;51.082;5.066;2022-12-29T03:39:54;0.60;;;0.60;;
65759;SDS011;52496;51.082;5.066;2022-12-29T03:42:25;3.35;;;1.00;;
65759;SDS011;52496;51.082;5.066;2022-12-29T03:45:00;1.13;;;0.90;;
65759;SDS011;52496;51.082;5.066;2022-12-29T03:47:31;3.85;;;1.30;;
65759;SDS011;52496;51.082;5.066;2022-12-29T03:50:01;3.17;;;1.00;;
65759;SDS011;52496;51.082;5.066;2022-12-29T03:52:32;6.40;;;1.08;;
65759;SDS011;52496;51.082;5.066;2022-12-29T03:55:03;3.53;;;1.00;;
65759;SDS011;52496;51.082;5.066;2022-12-29T03:57:34;4.75;;;1.17;;
65759;SDS011;52496;51.082;5.066;2022-12-29T04:00:05;2.85;;;1.00;;
65759;SDS011;52496;51.082;5.066;2022-12-29T04:02:36;2.47;;;0.93;;
65759;SDS011;52496;51.082;5.066;2022-12-29T04:05:07;4.00;;;1.23;;
65759;SDS011;52496;51.082;5.066;2022-12-29T04:07:38;6.80;;;1.30;;
65759;SDS011;52496;51.082;5.066;2022-12-29T04:10:08;1.73;;;0.93;;
65759;SDS011;52496;51.082;5.066;2022-12-29T04:12:39;5.00;;;1.35;;
65759;SDS011;52496;51.082;5.066;2022-12-29T04:15:11;3.45;;;1.27;;
65759;SDS011;52496;51.082;5.066;2022-12-29T04:17:42;4.70;;;1.20;;
65759;SDS011;52496;51.082;5.066;2022-12-29T04:20:15;6.50;;;1.23;;
65759;SDS011;52496;51.082;5.066;2022-12-29T04:23:04;5.82;;;1.33;;
65759;SDS011;52496;51.082;5.066;2022-12-29T04:25:48;5.47;;;2.50;;
65759;SDS011;52496;51.082;5.066;2022-12-29T04:28:18;3.53;;;1.30;;
65759;SDS011;52496;51.082;5.066;2022-12-29T04:30:50;3.67;;;1.20;;
65759;SDS011;52496;51.082;5.066;2022-12-29T04:33:21;4.00;;;1.52;;
65759;SDS011;52496;51.082;5.066;2022-12-29T04:35:52;1.95;;;1.13;;
65759;SDS011;52496;51.082;5.066;2022-12-29T04:38:24;4.57;;;1.60;;
65759;SDS011;52496;51.082;5.066;2022-12-29T04:40:54;2.97;;;1.13;;
65759;SDS011;52496;51.082;5.066;2022-12-29T04:43:25;2.40;;;1.23;;
65759;SDS011;52496;51.082;5.066;2022-12-29T04:45:56;4.63;;;1.90;;
65759;SDS011;52496;51.082;5.066;2022-12-29T04:48:27;5.22;;;1.90;;
65759;SDS011;52496;51.082;5.066;2022-12-29T04:51:05;7.10;;;1.58;;
65759;SDS011;52496;51.082;5.066;2022-12-29T04:53:36;8.15;;;1.38;;
65759;SDS011;52496;51.082;5.066;2022-12-29T04:56:07;6.47;;;1.77;;
65759;SDS011;52496;51.082;5.066;2022-12-29T04:58:39;2.78;;;1.08;;
65759;SDS011;52496;51.082;5.066;2022-12-29T05:01:11;4.63;;;1.15;;
65759;SDS011;52496;51.082;5.066;2022-12-29T05:03:41;2.97;;;1.27;;
65759;SDS011;52496;51.082;5.066;2022-12-29T05:06:13;6.45;;;1.98;;
65759;SDS011;52496;51.082;5.066;2022-12-29T05:08:43;2.92;;;1.30;;
65759;SDS011;52496;51.082;5.066;2022-12-29T05:11:14;3.78;;;1.50;;
65759;SDS011;52496;51.082;5.066;2022-12-29T05:13:45;2.95;;;1.35;;
65759;SDS011;52496;51.082;5.066;2022-12-29T05:16:16;4.07;;;1.30;;
65759;SDS011;52496;51.082;5.066;2022-12-29T05:18:47;4.38;;;1.30;;
65759;SDS011;52496;51.082;5.066;2022-12-29T05:21:17;4.30;;;1.60;;
65759;SDS011;52496;51.082;5.066;2022-12-29T05:23:48;8.20;;;2.22;;
65759;SDS011;52496;51.082;5.066;2022-12-29T05:26:18;4.30;;;1.20;;
65759;SDS011;52496;51.082;5.066;2022-12-29T05:28:49;3.38;;;1.63;;
65759;SDS011;52496;51.082;5.066;2022-12-29T05:31:20;4.75;;;1.30;;
65759;SDS011;52496;51.082;5.066;2022-12-29T05:33:50;6.75;;;2.00;;
65759;SDS011;52496;51.082;5.066;2022-12-29T05:36:21;4.45;;;1.40;;
65759;SDS011;52496;51.082;5.066;2022-12-29T05:38:52;3.92;;;1.40;;
65759;SDS011;52496;51.082;5.066;2022-12-29T05:41:22;8.20;;;1.80;;
65759;SDS011;52496;51.082;5.066;2022-12-29T05:43:53;6.80;;;1.80;;
65759;SDS011;52496;51.082;5.066;2022-12-29T05:46:23;3.80;;;1.50;;
65759;SDS011;52496;51.082;5.066;2022-12-29T05:48:54;3.63;;;1.63;;
65759;SDS011;52496;51.082;5.066;2022-12-29T05:51:24;4.22;;;1.40;;
65759;SDS011;52496;51.082;5.066;2022-12-29T05:53:55;5.43;;;1.75;;
65759;SDS011;52496;51.082;5.066;2022-12-29T05:56:25;2.13;;;1.30;;
65759;SDS011;52496;51.082;5.066;2022-12-29T05:58:56;4.90;;;1.60;;
65759;SDS011;52496;51.082;5.066;2022-12-29T06:01:27;9.02;;;1.70;;
65759;SDS011;52496;51.082;5.066;2022-12-29T06:03:58;5.50;;;1.88;;
65759;SDS011;52496;51.082;5.066;2022-12-29T06:06:28;3.97;;;1.30;;
65759;SDS011;52496;51.082;5.066;2022-12-29T06:08:59;7.03;;;1.35;;
65759;SDS011;52496;51.082;5.066;2022-12-29T06:11:29;4.53;;;1.65;;
65759;SDS011;52496;51.082;5.066;2022-12-29T06:13:59;8.63;;;1.95;;
65759;SDS011;52496;51.082;5.066;2022-12-29T06:16:30;6.13;;;1.20;;
65759;SDS011;52496;51.082;5.066;2022-12-29T06:19:01;4.63;;;1.60;;
65759;SDS011;52496;51.082;5.066;2022-12-29T06:21:32;9.18;;;1.80;;
65759;SDS011;52496;51.082;5.066;2022-12-29T06:24:02;6.45;;;1.58;;
65759;SDS011;52496;51.082;5.066;2022-12-29T06:26:33;8.13;;;3.10;;
65759;SDS011;52496;51.082;5.066;2022-12-29T06:29:04;4.50;;;1.45;;
65759;SDS011;52496;51.082;5.066;2022-12-29T06:31:35;9.23;;;1.83;;
65759;SDS011;52496;51.082;5.066;2022-12-29T06:34:06;8.30;;;2.22;;
65759;SDS011;52496;51.082;5.066;2022-12-29T06:36:36;7.22;;;1.98;;
65759;SDS011;52496;51.082;5.066;2022-12-29T06:39:07;7.60;;;1.63;;
65759;SDS011;52496;51.082;5.066;2022-12-29T06:41:37;8.10;;;1.80;;
65759;SDS011;52496;51.082;5.066;2022-12-29T06:44:08;5.82;;;1.83;;
65759;SDS011;52496;51.082;5.066;2022-12-29T06:46:38;4.93;;;1.60;;
65759;SDS011;52496;51.082;5.066;2022-12-29T06:49:09;5.03;;;1.42;;
65759;SDS011;52496;51.082;5.066;2022-12-29T06:51:39;10.50;;;1.95;;
65759;SDS011;52496;51.082;5.066;2022-12-29T06:54:10;4.95;;;1.60;;
65759;SDS011;52496;51.082;5.066;2022-12-29T06:56:41;5.70;;;1.73;;
65759;SDS011;52496;51.082;5.066;2022-12-29T06:59:12;7.15;;;2.10;;
65759;SDS011;52496;51.082;5.066;2022-12-29T07:01:43;8.85;;;1.95;;
65759;SDS011;52496;51.082;5.066;2022-12-29T07:04:14;9.30;;;1.95;;
65759;SDS011;52496;51.082;5.066;2022-12-29T07:06:44;8.20;;;2.08;;
65759;SDS011;52496;51.082;5.066;2022-12-29T07:09:15;6.30;;;1.55;;
65759;SDS011;52496;51.082;5.066;2022-12-29T07:11:45;6.15;;;1.80;;
65759;SDS011;52496;51.082;5.066;2022-12-29T07:14:16;4.75;;;1.50;;
65759;SDS011;52496;51.082;5.066;2022-12-29T07:16:46;6.40;;;1.95;;
65759;SDS011;52496;51.082;5.066;2022-12-29T07:19:17;12.60;;;1.80;;
65759;SDS011;52496;51.082;5.066;2022-12-29T07:21:48;7.13;;;1.95;;
65759;SDS011;52496;51.082;5.066;2022-12-29T07:24:22;7.18;;;1.65;;
65759;SDS011;52496;51.082;5.066;2022-12-29T07:26:52;5.32;;;2.10;;
65759;SDS011;52496;51.082;5.066;2022-12-29T07:29:23;6.63;;;1.45;;
65759;SDS011;52496;51.082;5.066;2022-12-29T07:31:54;6.65;;;1.90;;
65759;SDS011;52496;51.082;5.066;2022-12-29T07:34:24;12.07;;;2.40;;
65759;SDS011;52496;51.082;5.066;2022-12-29T07:36:55;5.22;;;1.67;;
65759;SDS011;52496;51.082;5.066;2022-12-29T07:39:25;8.07;;;2.17;;
65759;SDS011;52496;51.082;5.066;2022-12-29T07:41:56;7.15;;;2.22;;
65759;SDS011;52496;51.082;5.066;2022-12-29T07:44:27;4.65;;;1.80;;
65759;SDS011;52496;51.082;5.066;2022-12-29T07:46:57;7.43;;;1.70;;
65759;SDS011;52496;51.082;5.066;2022-12-29T07:49:28;7.50;;;2.15;;
65759;SDS011;52496;51.082;5.066;2022-12-29T07:51:58;8.80;;;1.90;;
65759;SDS011;52496;51.082;5.066;2022-12-29T07:54:30;9.90;;;2.25;;
65759;SDS011;52496;51.082;5.066;2022-12-29T07:57:01;7.03;;;1.60;;
65759;SDS011;52496;51.082;5.066;2022-12-29T07:59:31;6.75;;;1.73;;
65759;SDS011;52496;51.082;5.066;2022-12-29T08:02:02;6.95;;;1.90;;
65759;SDS011;52496;51.082;5.066;2022-12-29T08:04:32;5.03;;;1.90;;
65759;SDS011;52496;51.082;5.066;2022-12-29T08:07:03;7.63;;;1.95;;
65759;SDS011;52496;51.082;5.066;2022-12-29T08:09:34;8.68;;;2.58;;
65759;SDS011;52496;51.082;5.066;2022-12-29T08:12:05;5.30;;;2.00;;
65759;SDS011;52496;51.082;5.066;2022-12-29T08:14:35;7.80;;;2.22;;
65759;SDS011;52496;51.082;5.066;2022-12-29T08:17:06;4.43;;;1.52;;
65759;SDS011;52496;51.082;5.066;2022-12-29T08:19:37;6.78;;;1.95;;
65759;SDS011;52496;51.082;5.066;2022-12-29T08:22:07;7.70;;;1.90;;
65759;SDS011;52496;51.082;5.066;2022-12-29T08:24:38;9.13;;;1.75;;
65759;SDS011;52496;51.082;5.066;2022-12-29T08:27:08;6.85;;;1.95;;
65759;SDS011;52496;51.082;5.066;2022-12-29T08:29:39;6.15;;;1.67;;
65759;SDS011;52496;51.082;5.066;2022-12-29T08:32:10;5.43;;;2.30;;
65759;SDS011;52496;51.082;5.066;2022-12-29T08:34:41;6.25;;;2.10;;
65759;SDS011;52496;51.082;5.066;2022-12-29T08:37:11;6.00;;;2.10;;
65759;SDS011;52496;51.082;5.066;2022-12-29T08:39:42;7.13;;;2.15;;
65759;SDS011;52496;51.082;5.066;2022-12-29T08:42:12;5.55;;;1.85;;
65759;SDS011;52496;51.082;5.066;2022-12-29T08:44:43;9.82;;;2.15;;
65759;SDS011;52496;51.082;5.066;2022-12-29T08:47:14;4.60;;;1.63;;
65759;SDS011;52496;51.082;5.066;2022-12-29T08:49:44;6.75;;;1.63;;
65759;SDS011;52496;51.082;5.066;2022-12-29T08:52:15;5.40;;;2.13;;
65759;SDS011;52496;51.082;5.066;2022-12-29T08:54:46;7.40;;;1.65;;
65759;SDS011;52496;51.082;5.066;2022-12-29T08:57:16;10.57;;;2.10;;
65759;SDS011;52496;51.082;5.066;2022-12-29T08:59:47;6.70;;;2.00;;
65759;SDS011;52496;51.082;5.066;2022-12-29T09:02:17;6.47;;;1.65;;
65759;SDS011;52496;51.082;5.066;2022-12-29T09:04:48;6.97;;;2.20;;
65759;SDS011;52496;51.082;5.066;2022-12-29T09:07:18;8.75;;;3.28;;
65759;SDS011;52496;51.082;5.066;2022-12-29T09:09:49;11.07;;;1.90;;
65759;SDS011;52496;51.082;5.066;2022-12-29T09:12:20;7.43;;;2.13;;
65759;SDS011;52496;51.082;5.066;2022-12-29T09:14:50;11.50;;;2.85;;
65759;SDS011;52496;51.082;5.066;2022-12-29T09:17:21;8.23;;;1.88;;
65759;SDS011;52496;51.082;5.066;2022-12-29T09:20:15;6.97;;;1.85;;
65759;SDS011;52496;51.082;5.066;2022-12-29T09:22:47;7.80;;;1.67;;
65759;SDS011;52496;51.082;5.066;2022-12-29T09:25:18;9.00;;;1.85;;
65759;SDS011;52496;51.082;5.066;2022-12-29T09:27:52;7.35;;;1.65;;
65759;SDS011;52496;51.082;5.066;2022-12-29T09:30:23;5.35;;;1.80;;
65759;SDS011;52496;51.082;5.066;2022-12-29T09:32:54;7.40;;;1.80;;
65759;SDS011;52496;51.082;5.066;2022-12-29T09:35:24;10.15;;;2.58;;
65759;SDS011;52496;51.082;5.066;2022-12-29T09:37:55;8.93;;;2.17;;
65759;SDS011;52496;51.082;5.066;2022-12-29T09:40:29;11.70;;;2.47;;
65759;SDS011;52496;51.082;5.066;2022-12-29T09:48:44;5.97;;;1.95;;
65759;SDS011;52496;51.082;5.066;2022-12-29T09:51:21;9.55;;;2.33;;
65759;SDS011;52496;51.082;5.066;2022-12-29T09:53:58;7.20;;;2.30;;
65759;SDS011;52496;51.082;5.066;2022-12-29T09:56:34;9.88;;;2.47;;
65759;SDS011;52496;51.082;5.066;2022-12-29T09:59:08;8.18;;;2.10;;
65759;SDS011;52496;51.082;5.066;2022-12-29T10:01:51;7.72;;;2.53;;
65759;SDS011;52496;51.082;5.066;2022-12-29T10:04:28;5.28;;;2.00;;
65759;SDS011;52496;51.082;5.066;2022-12-29T10:07:03;12.27;;;2.25;;
65759;SDS011;52496;51.082;5.066;2022-12-29T10:12:52;11.45;;;3.55;;
65759;SDS011;52496;51.082;5.066;2022-12-29T10:18:24;8.75;;;1.85;;
65759;SDS011;52496;51.082;5.066;2022-12-29T10:24:22;10.50;;;2.45;;
65759;SDS011;52496;51.082;5.066;2022-12-29T10:26:54;10.23;;;2.67;;
65759;SDS011;52496;51.082;5.066;2022-12-29T10:29:30;6.45;;;2.50;;
65759;SDS011;52496;51.082;5.066;2022-12-29T10:32:11;13.82;;;2.42;;
65759;SDS011;52496;51.082;5.066;2022-12-29T10:34:53;8.07;;;2.28;;
65759;SDS011;52496;51.082;5.066;2022-12-29T10:43:00;8.93;;;2.03;;
65759;SDS011;52496;51.082;5.066;2022-12-29T10:45:43;6.45;;;1.75;;
65759;SDS011;52496;51.082;5.066;2022-12-29T10:48:47;8.40;;;2.03;;
65759;SDS011;52496;51.082;5.066;2022-12-29T10:51:25;4.53;;;1.63;;
65759;SDS011;52496;51.082;5.066;2022-12-29T10:54:00;8.48;;;2.58;;
65759;SDS011;52496;51.082;5.066;2022-12-29T10:56:50;8.27;;;2.20;;
65759;SDS011;52496;51.082;5.066;2022-12-29T10:59:30;7.60;;;2.05;;
65759;SDS011;52496;51.082;5.066;2022-12-29T11:07:34;10.98;;;2.47;;
65759;SDS011;52496;51.082;5.066;2022-12-29T11:10:15;14.82;;;2.83;;
65759;SDS011;52496;51.082;5.066;2022-12-29T11:12:59;8.55;;;2.42;;
65759;SDS011;52496;51.082;5.066;2022-12-29T11:15:38;7.88;;;2.15;;
65759;SDS011;52496;51.082;5.066;2022-12-29T11:18:20;10.52;;;2.53;;
65759;SDS011;52496;51.082;5.066;2022-12-29T11:21:02;11.63;;;2.67;;
65759;SDS011;52496;51.082;5.066;2022-12-29T11:23:36;7.18;;;2.05;;
65759;SDS011;52496;51.082;5.066;2022-12-29T11:26:25;9.00;;;2.28;;
65759;SDS011;52496;51.082;5.066;2022-12-29T11:29:11;6.60;;;2.13;;
65759;SDS011;52496;51.082;5.066;2022-12-29T11:31:50;5.18;;;1.88;;
65759;SDS011;52496;51.082;5.066;2022-12-29T11:37:03;8.45;;;2.35;;
65759;SDS011;52496;51.082;5.066;2022-12-29T11:39:37;9.20;;;2.50;;
65759;SDS011;52496;51.082;5.066;2022-12-29T11:42:36;6.53;;;2.10;;
65759;SDS011;52496;51.082;5.066;2022-12-29T11:45:26;12.82;;;2.25;;
65759;SDS011;52496;51.082;5.066;2022-12-29T11:50:39;4.65;;;2.30;;
65759;SDS011;52496;51.082;5.066;2022-12-29T11:53:25;10.82;;;1.98;;
65759;SDS011;52496;51.082;5.066;2022-12-29T11:56:00;7.75;;;2.22;;
65759;SDS011;52496;51.082;5.066;2022-12-29T11:58:35;10.70;;;1.98;;
65759;SDS011;52496;51.082;5.066;2022-12-29T12:01:11;7.53;;;1.88;;
65759;SDS011;52496;51.082;5.066;2022-12-29T12:06:32;7.63;;;2.08;;
65759;SDS011;52496;51.082;5.066;2022-12-29T12:09:16;4.60;;;1.85;;
65759;SDS011;52496;51.082;5.066;2022-12-29T12:12:01;9.55;;;2.08;;
65759;SDS011;52496;51.082;5.066;2022-12-29T12:14:37;5.75;;;2.20;;
65759;SDS011;52496;51.082;5.066;2022-12-29T12:17:23;11.80;;;2.30;;
65759;SDS011;52496;51.082;5.066;2022-12-29T12:28:52;10.70;;;2.60;;
65759;SDS011;52496;51.082;5.066;2022-12-29T12:31:47;12.68;;;2.70;;
65759;SDS011;52496;51.082;5.066;2022-12-29T13:08:06;7.88;;;2.22;;
65759;SDS011;52496;51.082;5.066;2022-12-29T13:10:50;14.65;;;2.40;;
65759;SDS011;52496;51.082;5.066;2022-12-29T13:16:32;7.43;;;2.10;;
65759;SDS011;52496;51.082;5.066;2022-12-29T13:22:13;8.52;;;2.50;;
65759;SDS011;52496;51.082;5.066;2022-12-29T13:30:54;10.77;;;2.28;;
65759;SDS011;52496;51.082;5.066;2022-12-29T13:39:08;8.52;;;2.20;;
65759;SDS011;52496;51.082;5.066;2022-12-29T13:41:53;6.88;;;1.70;;
65759;SDS011;52496;51.082;5.066;2022-12-29T13:44:37;5.05;;;1.70;;
65759;SDS011;52496;51.082;5.066;2022-12-29T13:49:57;9.93;;;2.00;;
65759;SDS011;52496;51.082;5.066;2022-12-29T13:55:35;9.90;;;2.10;;
65759;SDS011;52496;51.082;5.066;2022-12-29T14:03:50;7.30;;;1.92;;
65759;SDS011;52496;51.082;5.066;2022-12-29T14:06:24;7.20;;;1.98;;
65759;SDS011;52496;51.082;5.066;2022-12-29T14:09:00;7.63;;;2.30;;
65759;SDS011;52496;51.082;5.066;2022-12-29T14:11:34;8.85;;;2.22;;
65759;SDS011;52496;51.082;5.066;2022-12-29T14:14:14;7.80;;;2.00;;
65759;SDS011;52496;51.082;5.066;2022-12-29T14:16:53;8.15;;;2.10;;
65759;SDS011;52496;51.082;5.066;2022-12-29T14:19:29;6.40;;;2.33;;
65759;SDS011;52496;51.082;5.066;2022-12-29T14:22:02;7.53;;;2.65;;
65759;SDS011;52496;51.082;5.066;2022-12-29T14:29:45;6.43;;;1.77;;
65759;SDS011;52496;51.082;5.066;2022-12-29T14:37:26;14.13;;;2.90;;
65759;SDS011;52496;51.082;5.066;2022-12-29T14:42:49;6.60;;;2.45;;
65759;SDS011;52496;51.082;5.066;2022-12-29T14:45:29;8.27;;;2.40;;
65759;SDS011;52496;51.082;5.066;2022-12-29T14:48:02;6.20;;;2.03;;
65759;SDS011;52496;51.082;5.066;2022-12-29T14:50:54;11.77;;;2.60;;
65759;SDS011;52496;51.082;5.066;2022-12-29T14:56:18;13.18;;;2.92;;
65759;SDS011;52496;51.082;5.066;2022-12-29T15:04:21;11.52;;;2.80;;
65759;SDS011;52496;51.082;5.066;2022-12-29T15:06:55;7.65;;;2.78;;
65759;SDS011;52496;51.082;5.066;2022-12-29T15:09:28;11.40;;;2.92;;
65759;SDS011;52496;51.082;5.066;2022-12-29T15:12:05;9.55;;;2.60;;
65759;SDS011;52496;51.082;5.066;2022-12-29T15:17:52;13.23;;;2.55;;
65759;SDS011;52496;51.082;5.066;2022-12-29T15:20:24;8.95;;;2.85;;
65759;SDS011;52496;51.082;5.066;2022-12-29T15:23:10;6.65;;;1.70;;
65759;SDS011;52496;51.082;5.066;2022-12-29T15:25:55;4.50;;;1.60;;
65759;SDS011;52496;51.082;5.066;2022-12-29T15:28:28;6.28;;;1.65;;
65759;SDS011;52496;51.082;5.066;2022-12-29T15:31:15;5.47;;;1.70;;
65759;SDS011;52496;51.082;5.066;2022-12-29T15:34:00;3.85;;;1.52;;
65759;SDS011;52496;51.082;5.066;2022-12-29T15:36:40;3.80;;;1.50;;
65759;SDS011;52496;51.082;5.066;2022-12-29T15:39:20;5.53;;;1.90;;
65759;SDS011;52496;51.082;5.066;2022-12-29T15:45:03;5.25;;;1.70;;
65759;SDS011;52496;51.082;5.066;2022-12-29T15:47:36;4.50;;;1.75;;
65759;SDS011;52496;51.082;5.066;2022-12-29T15:50:28;3.97;;;1.20;;
65759;SDS011;52496;51.082;5.066;2022-12-29T15:53:11;7.55;;;2.22;;
65759;SDS011;52496;51.082;5.066;2022-12-29T15:55:49;5.35;;;1.52;;
65759;SDS011;52496;51.082;5.066;2022-12-29T15:58:23;8.85;;;2.00;;
65759;SDS011;52496;51.082;5.066;2022-12-29T16:00:57;8.43;;;1.30;;
65759;SDS011;52496;51.082;5.066;2022-12-29T16:03:33;5.82;;;1.65;;
65759;SDS011;52496;51.082;5.066;2022-12-29T16:06:10;7.95;;;2.25;;
65759;SDS011;52496;51.082;5.066;2022-12-29T16:09:04;8.57;;;2.15;;
65759;SDS011;52496;51.082;5.066;2022-12-29T16:11:52;5.30;;;1.85;;
65759;SDS011;52496;51.082;5.066;2022-12-29T16:17:14;7.97;;;1.98;;
65759;SDS011;52496;51.082;5.066;2022-12-29T16:19:52;7.43;;;2.08;;
65759;SDS011;52496;51.082;5.066;2022-12-29T16:22:33;3.95;;;1.63;;
65759;SDS011;52496;51.082;5.066;2022-12-29T16:25:30;6.90;;;1.98;;
65759;SDS011;52496;51.082;5.066;2022-12-29T16:28:14;5.05;;;1.90;;
65759;SDS011;52496;51.082;5.066;2022-12-29T16:30:59;8.88;;;2.17;;
65759;SDS011;52496;51.082;5.066;2022-12-29T16:33:45;5.50;;;2.30;;
65759;SDS011;52496;51.082;5.066;2022-12-29T16:36:33;9.50;;;2.70;;
65759;SDS011;52496;51.082;5.066;2022-12-29T16:39:20;9.18;;;3.00;;
65759;SDS011;52496;51.082;5.066;2022-12-29T16:41:52;10.65;;;2.30;;
65759;SDS011;52496;51.082;5.066;2022-12-29T16:44:26;9.07;;;2.53;;
65759;SDS011;52496;51.082;5.066;2022-12-29T16:49:42;10.60;;;2.38;;
65759;SDS011;52496;51.082;5.066;2022-12-29T16:52:19;9.45;;;2.40;;
65759;SDS011;52496;51.082;5.066;2022-12-29T16:54:53;9.00;;;2.45;;
65759;SDS011;52496;51.082;5.066;2022-12-29T16:57:30;14.65;;;2.78;;
65759;SDS011;52496;51.082;5.066;2022-12-29T17:00:07;10.00;;;2.85;;
65759;SDS011;52496;51.082;5.066;2022-12-29T17:02:48;7.05;;;3.17;;
65759;SDS011;52496;51.082;5.066;2022-12-29T17:05:21;5.40;;;2.67;;
65759;SDS011;52496;51.082;5.066;2022-12-29T17:07:51;12.80;;;3.15;;
65759;SDS011;52496;51.082;5.066;2022-12-29T17:10:22;9.27;;;2.72;;
65759;SDS011;52496;51.082;5.066;2022-12-29T17:13:13;8.77;;;2.63;;
65759;SDS011;52496;51.082;5.066;2022-12-29T17:15:43;8.77;;;2.63;;
65759;SDS011;52496;51.082;5.066;2022-12-29T17:18:14;9.10;;;3.75;;
65759;SDS011;52496;51.082;5.066;2022-12-29T17:20:45;10.23;;;3.10;;
65759;SDS011;52496;51.082;5.066;2022-12-29T17:23:15;10.23;;;3.33;;
65759;SDS011;52496;51.082;5.066;2022-12-29T17:25:46;9.95;;;2.30;;
65759;SDS011;52496;51.082;5.066;2022-12-29T17:28:20;14.98;;;2.95;;
65759;SDS011;52496;51.082;5.066;2022-12-29T17:30:54;9.63;;;3.45;;
65759;SDS011;52496;51.082;5.066;2022-12-29T17:33:28;6.60;;;2.70;;
65759;SDS011;52496;51.082;5.066;2022-12-29T17:36:03;9.80;;;2.95;;
65759;SDS011;52496;51.082;5.066;2022-12-29T17:38:35;12.40;;;3.30;;
65759;SDS011;52496;51.082;5.066;2022-12-29T17:41:10;11.60;;;3.47;;
65759;SDS011;52496;51.082;5.066;2022-12-29T17:43:43;19.33;;;3.72;;
65759;SDS011;52496;51.082;5.066;2022-12-29T17:46:13;9.25;;;2.70;;
65759;SDS011;52496;51.082;5.066;2022-12-29T17:48:44;14.35;;;3.22;;
65759;SDS011;52496;51.082;5.066;2022-12-29T17:51:15;10.85;;;3.17;;
65759;SDS011;52496;51.082;5.066;2022-12-29T17:53:46;14.90;;;4.00;;
65759;SDS011;52496;51.082;5.066;2022-12-29T17:56:17;16.67;;;3.45;;
65759;SDS011;52496;51.082;5.066;2022-12-29T17:58:48;13.95;;;3.35;;
65759;SDS011;52496;51.082;5.066;2022-12-29T18:01:19;10.55;;;3.30;;
65759;SDS011;52496;51.082;5.066;2022-12-29T18:03:51;16.83;;;3.72;;
65759;SDS011;52496;51.082;5.066;2022-12-29T18:06:21;14.77;;;3.97;;
65759;SDS011;52496;51.082;5.066;2022-12-29T18:08:52;11.02;;;3.70;;
65759;SDS011;52496;51.082;5.066;2022-12-29T18:11:25;13.07;;;3.72;;
65759;SDS011;52496;51.082;5.066;2022-12-29T18:13:56;8.35;;;2.72;;
65759;SDS011;52496;51.082;5.066;2022-12-29T18:16:26;16.33;;;4.15;;
65759;SDS011;52496;51.082;5.066;2022-12-29T18:18:57;12.00;;;2.83;;
65759;SDS011;52496;51.082;5.066;2022-12-29T18:21:27;13.52;;;3.67;;
65759;SDS011;52496;51.082;5.066;2022-12-29T18:23:58;19.80;;;3.45;;
65759;SDS011;52496;51.082;5.066;2022-12-29T18:26:29;14.60;;;3.33;;